sensor_id;sensor_type;location;lat;lon;timestamp;pressure;altitude;pressure_sealevel;temperature;humidity
31331;BME280;34067;39.548;-76.088;2023-02-25T00:00:37;103056.79;;;2.24;31.49
31331;BME280;34067;39.548;-76.088;2023-02-25T00:03:06;103071.61;;;2.65;31.01
31331;BME280;34067;39.548;-76.088;2023-02-25T00:05:36;103056.44;;;2.52;32.10
31331;BME280;34067;39.548;-76.088;2023-02-25T00:08:05;103074.97;;;1.88;32.20
31331;BME280;34067;39.548;-76.088;2023-02-25T00:10:34;103071.14;;;3.24;30.79
31331;BME280;34067;39.548;-76.088;2023-02-25T00:13:03;103081.70;;;2.47;31.45
31331;BME280;34067;39.548;-76.088;2023-02-25T00:15:32;103077.96;;;1.61;31.28
31331;BME280;34067;39.548;-76.088;2023-02-25T00:18:01;103086.48;;;2.94;31.26
31331;BME280;34067;39.548;-76.088;2023-02-25T00:20:28;103096.14;;;2.81;31.14
31331;BME280;34067;39.548;-76.088;2023-02-25T00:22:56;103098.20;;;2.34;30.90
31331;BME280;34067;39.548;-76.088;2023-02-25T00:25:24;103112.64;;;2.30;30.60
31331;BME280;34067;39.548;-76.088;2023-02-25T00:27:52;103097.60;;;1.91;31.26
31331;BME280;34067;39.548;-76.088;2023-02-25T00:30:21;103108.58;;;1.82;31.85
31331;BME280;34067;39.548;-76.088;2023-02-25T00:32:51;103103.52;;;2.27;30.96
31331;BME280;34067;39.548;-76.088;2023-02-25T00:35:19;103118.70;;;2.32;30.78
31331;BME280;34067;39.548;-76.088;2023-02-25T00:37:50;103125.79;;;1.63;31.28
31331;BME280;34067;39.548;-76.088;2023-02-25T00:40:18;103114.31;;;1.21;32.03
31331;BME280;34067;39.548;-76.088;2023-02-25T00:42:46;103125.19;;;1.69;30.73
31331;BME280;34067;39.548;-76.088;2023-02-25T00:45:15;103124.89;;;2.28;31.75
31331;BME280;34067;39.548;-76.088;2023-02-25T00:47:43;103132.26;;;1.78;31.18
31331;BME280;34067;39.548;-76.088;2023-02-25T00:50:11;103129.49;;;1.65;32.73
31331;BME280;34067;39.548;-76.088;2023-02-25T00:52:40;103130.87;;;1.30;32.70
31331;BME280;34067;39.548;-76.088;2023-02-25T00:55:09;103147.71;;;2.05;31.51
31331;BME280;34067;39.548;-76.088;2023-02-25T00:57:37;103148.51;;;1.45;33.91
31331;BME280;34067;39.548;-76.088;2023-02-25T01:00:06;103144.54;;;1.18;34.16
31331;BME280;34067;39.548;-76.088;2023-02-25T01:02:35;103155.03;;;2.46;31.67
31331;BME280;34067;39.548;-76.088;2023-02-25T01:05:03;103160.20;;;1.70;31.85
31331;BME280;34067;39.548;-76.088;2023-02-25T01:07:31;103154.59;;;1.60;31.87
31331;BME280;34067;39.548;-76.088;2023-02-25T01:09:58;103154.52;;;2.57;31.13
31331;BME280;34067;39.548;-76.088;2023-02-25T01:12:27;103152.71;;;2.48;34.12
31331;BME280;34067;39.548;-76.088;2023-02-25T01:14:55;103164.69;;;1.61;33.09
31331;BME280;34067;39.548;-76.088;2023-02-25T01:17:24;103169.41;;;0.99;32.13
31331;BME280;34067;39.548;-76.088;2023-02-25T01:19:51;103166.39;;;1.11;34.15
31331;BME280;34067;39.548;-76.088;2023-02-25T01:22:20;103177.44;;;2.41;31.50
31331;BME280;34067;39.548;-76.088;2023-02-25T01:24:48;103165.89;;;0.93;35.10
31331;BME280;34067;39.548;-76.088;2023-02-25T01:27:17;103174.50;;;1.58;32.75
31331;BME280;34067;39.548;-76.088;2023-02-25T01:29:45;103182.65;;;2.26;32.26
31331;BME280;34067;39.548;-76.088;2023-02-25T01:32:14;103195.07;;;1.17;31.68
31331;BME280;34067;39.548;-76.088;2023-02-25T01:34:41;103195.02;;;1.83;32.20
31331;BME280;34067;39.548;-76.088;2023-02-25T01:37:10;103198.88;;;0.97;32.67
31331;BME280;34067;39.548;-76.088;2023-02-25T01:39:39;103209.69;;;1.51;32.68
31331;BME280;34067;39.548;-76.088;2023-02-25T01:42:13;103200.41;;;1.55;33.03
31331;BME280;34067;39.548;-76.088;2023-02-25T01:45:24;103219.77;;;2.17;32.42
31331;BME280;34067;39.548;-76.088;2023-02-25T01:47:59;103219.69;;;1.28;33.56
31331;BME280;34067;39.548;-76.088;2023-02-25T01:50:34;103220.56;;;1.01;32.91
31331;BME280;34067;39.548;-76.088;2023-02-25T01:53:05;103227.30;;;1.94;32.62
31331;BME280;34067;39.548;-76.088;2023-02-25T01:55:34;103216.96;;;1.19;32.20
31331;BME280;34067;39.548;-76.088;2023-02-25T01:58:02;103223.79;;;1.23;31.66
31331;BME280;34067;39.548;-76.088;2023-02-25T02:00:32;103228.01;;;1.58;31.76
31331;BME280;34067;39.548;-76.088;2023-02-25T02:03:01;103233.98;;;1.13;31.45
31331;BME280;34067;39.548;-76.088;2023-02-25T02:05:47;103232.54;;;1.14;32.03
31331;BME280;34067;39.548;-76.088;2023-02-25T02:08:17;103232.33;;;1.45;31.48
31331;BME280;34067;39.548;-76.088;2023-02-25T02:10:46;103228.67;;;2.41;31.64
31331;BME280;34067;39.548;-76.088;2023-02-25T02:13:14;103222.96;;;3.74;30.33
31331;BME280;34067;39.548;-76.088;2023-02-25T02:15:49;103226.82;;;3.69;30.83
31331;BME280;34067;39.548;-76.088;2023-02-25T02:18:22;103237.86;;;3.34;29.95
31331;BME280;34067;39.548;-76.088;2023-02-25T02:21:03;103234.72;;;2.27;35.13
31331;BME280;34067;39.548;-76.088;2023-02-25T02:23:55;103236.20;;;0.44;35.77
31331;BME280;34067;39.548;-76.088;2023-02-25T02:26:46;103241.35;;;0.52;38.01
31331;BME280;34067;39.548;-76.088;2023-02-25T02:29:45;103249.54;;;0.38;38.02
31331;BME280;34067;39.548;-76.088;2023-02-25T02:32:26;103260.63;;;0.51;36.53
31331;BME280;34067;39.548;-76.088;2023-02-25T02:35:06;103264.67;;;0.62;38.08
31331;BME280;34067;39.548;-76.088;2023-02-25T02:37:41;103266.01;;;0.24;36.21
31331;BME280;34067;39.548;-76.088;2023-02-25T02:40:22;103261.84;;;0.53;37.21
31331;BME280;34067;39.548;-76.088;2023-02-25T02:43:05;103264.57;;;0.53;41.50
31331;BME280;34067;39.548;-76.088;2023-02-25T02:45:41;103293.46;;;-0.51;38.63
31331;BME280;34067;39.548;-76.088;2023-02-25T02:48:16;103278.26;;;0.97;42.79
31331;BME280;34067;39.548;-76.088;2023-02-25T02:50:49;103289.71;;;1.18;38.96
31331;BME280;34067;39.548;-76.088;2023-02-25T02:53:24;103286.87;;;0.45;40.65
31331;BME280;34067;39.548;-76.088;2023-02-25T02:55:57;103285.51;;;0.27;38.72
31331;BME280;34067;39.548;-76.088;2023-02-25T02:58:28;103289.47;;;0.80;38.88
31331;BME280;34067;39.548;-76.088;2023-02-25T03:01:02;103293.91;;;0.26;39.10
31331;BME280;34067;39.548;-76.088;2023-02-25T03:03:35;103276.60;;;1.23;38.25
31331;BME280;34067;39.548;-76.088;2023-02-25T03:06:09;103281.98;;;1.15;37.85
31331;BME280;34067;39.548;-76.088;2023-02-25T03:08:42;103288.65;;;0.14;36.26
31331;BME280;34067;39.548;-76.088;2023-02-25T03:11:11;103281.93;;;1.47;39.58
31331;BME280;34067;39.548;-76.088;2023-02-25T03:13:40;103290.97;;;0.24;38.46
31331;BME280;34067;39.548;-76.088;2023-02-25T03:16:13;103290.48;;;-0.27;41.37
31331;BME280;34067;39.548;-76.088;2023-02-25T03:18:50;103297.54;;;-0.20;36.54
31331;BME280;34067;39.548;-76.088;2023-02-25T03:21:22;103308.12;;;-0.15;39.76
31331;BME280;34067;39.548;-76.088;2023-02-25T03:23:54;103302.95;;;-0.14;40.69
31331;BME280;34067;39.548;-76.088;2023-02-25T03:26:27;103306.36;;;0.93;40.01
31331;BME280;34067;39.548;-76.088;2023-02-25T03:28:57;103313.56;;;0.41;38.46
31331;BME280;34067;39.548;-76.088;2023-02-25T03:31:28;103314.47;;;-0.25;38.22
31331;BME280;34067;39.548;-76.088;2023-02-25T03:34:00;103322.21;;;-0.41;40.23
31331;BME280;34067;39.548;-76.088;2023-02-25T03:36:32;103324.51;;;-0.32;38.16
31331;BME280;34067;39.548;-76.088;2023-02-25T03:39:05;103334.78;;;0.09;39.81
31331;BME280;34067;39.548;-76.088;2023-02-25T03:41:37;103330.06;;;-0.12;38.08
31331;BME280;34067;39.548;-76.088;2023-02-25T03:44:08;103327.40;;;1.28;36.55
31331;BME280;34067;39.548;-76.088;2023-02-25T03:46:40;103331.37;;;0.12;40.16
31331;BME280;34067;39.548;-76.088;2023-02-25T03:49:15;103333.66;;;-0.19;38.09
31331;BME280;34067;39.548;-76.088;2023-02-25T03:51:47;103332.56;;;-0.40;38.25
31331;BME280;34067;39.548;-76.088;2023-02-25T03:54:16;103333.77;;;-0.81;37.47
31331;BME280;34067;39.548;-76.088;2023-02-25T03:56:47;103332.76;;;-0.35;40.96
31331;BME280;34067;39.548;-76.088;2023-02-25T03:59:16;103336.65;;;-0.17;37.38
31331;BME280;34067;39.548;-76.088;2023-02-25T04:01:47;103338.10;;;-0.15;39.13
31331;BME280;34067;39.548;-76.088;2023-02-25T04:04:16;103330.47;;;-0.41;38.30
31331;BME280;34067;39.548;-76.088;2023-02-25T04:06:44;103339.19;;;0.03;38.87
31331;BME280;34067;39.548;-76.088;2023-02-25T04:09:13;103336.70;;;0.29;39.88
31331;BME280;34067;39.548;-76.088;2023-02-25T04:11:41;103338.74;;;0.04;41.29
31331;BME280;34067;39.548;-76.088;2023-02-25T04:14:09;103335.21;;;-0.60;39.11
31331;BME280;34067;39.548;-76.088;2023-02-25T04:16:37;103332.16;;;0.37;37.29
31331;BME280;34067;39.548;-76.088;2023-02-25T04:19:05;103329.18;;;-0.35;39.31
31331;BME280;34067;39.548;-76.088;2023-02-25T04:21:35;103327.25;;;-1.87;37.04
31331;BME280;34067;39.548;-76.088;2023-02-25T04:24:06;103319.39;;;-1.37;40.29
31331;BME280;34067;39.548;-76.088;2023-02-25T04:26:34;103319.53;;;-2.09;39.33
31331;BME280;34067;39.548;-76.088;2023-02-25T04:29:03;103324.14;;;-0.91;38.94
31331;BME280;34067;39.548;-76.088;2023-02-25T04:31:31;103329.83;;;-0.36;39.46
31331;BME280;34067;39.548;-76.088;2023-02-25T04:33:59;103330.64;;;-0.85;39.14
31331;BME280;34067;39.548;-76.088;2023-02-25T04:36:29;103329.80;;;-1.38;38.11
31331;BME280;34067;39.548;-76.088;2023-02-25T04:38:58;103337.64;;;-0.29;39.54
31331;BME280;34067;39.548;-76.088;2023-02-25T04:41:29;103339.04;;;-0.67;37.54
31331;BME280;34067;39.548;-76.088;2023-02-25T04:43:58;103338.20;;;-0.35;37.44
31331;BME280;34067;39.548;-76.088;2023-02-25T04:46:26;103343.01;;;-0.07;38.19
31331;BME280;34067;39.548;-76.088;2023-02-25T04:48:54;103345.12;;;-1.20;38.54
31331;BME280;34067;39.548;-76.088;2023-02-25T04:51:24;103340.75;;;0.13;39.28
31331;BME280;34067;39.548;-76.088;2023-02-25T04:53:52;103345.16;;;-1.10;37.99
31331;BME280;34067;39.548;-76.088;2023-02-25T04:56:21;103342.09;;;-0.07;37.47
31331;BME280;34067;39.548;-76.088;2023-02-25T04:58:49;103339.97;;;0.38;35.67
31331;BME280;34067;39.548;-76.088;2023-02-25T05:01:17;103341.66;;;0.48;38.72
31331;BME280;34067;39.548;-76.088;2023-02-25T05:03:45;103342.48;;;0.58;39.27
31331;BME280;34067;39.548;-76.088;2023-02-25T05:06:13;103345.14;;;0.57;36.67
31331;BME280;34067;39.548;-76.088;2023-02-25T05:08:41;103348.25;;;0.63;36.46
31331;BME280;34067;39.548;-76.088;2023-02-25T05:11:09;103341.61;;;0.80;36.83
31331;BME280;34067;39.548;-76.088;2023-02-25T05:13:36;103352.14;;;0.77;37.24
31331;BME280;34067;39.548;-76.088;2023-02-25T05:16:08;103354.36;;;0.84;37.20
31331;BME280;34067;39.548;-76.088;2023-02-25T05:18:37;103357.91;;;-0.94;38.34
31331;BME280;34067;39.548;-76.088;2023-02-25T05:21:09;103353.64;;;-0.61;36.98
31331;BME280;34067;39.548;-76.088;2023-02-25T05:23:37;103356.24;;;-0.75;38.87
31331;BME280;34067;39.548;-76.088;2023-02-25T05:26:06;103356.07;;;-1.13;37.46
31331;BME280;34067;39.548;-76.088;2023-02-25T05:28:35;103355.21;;;-0.26;38.70
31331;BME280;34067;39.548;-76.088;2023-02-25T05:31:04;103354.10;;;0.30;37.65
31331;BME280;34067;39.548;-76.088;2023-02-25T05:33:32;103356.50;;;-1.03;38.16
31331;BME280;34067;39.548;-76.088;2023-02-25T05:36:00;103356.78;;;-0.20;35.47
31331;BME280;34067;39.548;-76.088;2023-02-25T05:38:28;103355.80;;;-1.65;37.47
31331;BME280;34067;39.548;-76.088;2023-02-25T05:40:59;103359.49;;;-0.78;39.56
31331;BME280;34067;39.548;-76.088;2023-02-25T05:43:27;103363.49;;;-0.84;39.02
31331;BME280;34067;39.548;-76.088;2023-02-25T05:45:57;103363.57;;;-0.44;37.60
31331;BME280;34067;39.548;-76.088;2023-02-25T05:48:26;103365.64;;;-0.92;37.98
31331;BME280;34067;39.548;-76.088;2023-02-25T05:51:00;103364.46;;;-0.78;36.64
31331;BME280;34067;39.548;-76.088;2023-02-25T05:53:29;103363.22;;;-1.48;37.76
31331;BME280;34067;39.548;-76.088;2023-02-25T05:55:57;103351.24;;;-1.24;37.28
31331;BME280;34067;39.548;-76.088;2023-02-25T05:58:25;103350.97;;;-0.13;37.39
31331;BME280;34067;39.548;-76.088;2023-02-25T06:03:12;103340.14;;;-1.70;37.05
31331;BME280;34067;39.548;-76.088;2023-02-25T06:05:40;103348.18;;;-1.38;38.03
31331;BME280;34067;39.548;-76.088;2023-02-25T06:08:09;103349.75;;;-1.10;40.27
31331;BME280;34067;39.548;-76.088;2023-02-25T06:10:38;103354.70;;;-0.65;39.41
31331;BME280;34067;39.548;-76.088;2023-02-25T06:13:07;103355.88;;;-0.55;38.35
31331;BME280;34067;39.548;-76.088;2023-02-25T06:15:39;103352.91;;;-0.87;39.72
31331;BME280;34067;39.548;-76.088;2023-02-25T06:18:07;103343.46;;;-0.50;38.69
31331;BME280;34067;39.548;-76.088;2023-02-25T06:20:35;103347.08;;;-1.64;39.14
31331;BME280;34067;39.548;-76.088;2023-02-25T06:23:03;103349.71;;;-0.28;38.66
31331;BME280;34067;39.548;-76.088;2023-02-25T06:25:32;103353.38;;;-0.37;38.08
31331;BME280;34067;39.548;-76.088;2023-02-25T06:28:00;103355.68;;;-0.77;37.23
31331;BME280;34067;39.548;-76.088;2023-02-25T06:30:29;103359.38;;;-2.38;38.86
31331;BME280;34067;39.548;-76.088;2023-02-25T06:32:57;103354.51;;;-0.79;37.93
31331;BME280;34067;39.548;-76.088;2023-02-25T06:35:25;103348.11;;;-0.97;38.71
31331;BME280;34067;39.548;-76.088;2023-02-25T06:37:55;103347.14;;;-0.78;37.12
31331;BME280;34067;39.548;-76.088;2023-02-25T06:40:23;103352.49;;;0.55;36.90
31331;BME280;34067;39.548;-76.088;2023-02-25T06:42:52;103353.89;;;-1.35;38.46
31331;BME280;34067;39.548;-76.088;2023-02-25T06:45:20;103350.25;;;-0.04;37.21
31331;BME280;34067;39.548;-76.088;2023-02-25T06:47:48;103348.81;;;-1.37;37.13
31331;BME280;34067;39.548;-76.088;2023-02-25T06:50:17;103347.25;;;-1.51;37.81
31331;BME280;34067;39.548;-76.088;2023-02-25T06:52:45;103350.38;;;-1.32;39.08
31331;BME280;34067;39.548;-76.088;2023-02-25T06:55:13;103355.74;;;-1.98;38.37
31331;BME280;34067;39.548;-76.088;2023-02-25T06:57:41;103357.69;;;-1.75;38.95
31331;BME280;34067;39.548;-76.088;2023-02-25T07:00:09;103345.17;;;-0.56;38.07
31331;BME280;34067;39.548;-76.088;2023-02-25T07:02:38;103337.58;;;-2.03;38.53
31331;BME280;34067;39.548;-76.088;2023-02-25T07:05:07;103323.86;;;-1.30;40.05
31331;BME280;34067;39.548;-76.088;2023-02-25T07:07:35;103314.72;;;-1.61;40.18
31331;BME280;34067;39.548;-76.088;2023-02-25T07:10:04;103306.91;;;-1.86;39.09
31331;BME280;34067;39.548;-76.088;2023-02-25T07:12:32;103301.57;;;-1.59;40.85
31331;BME280;34067;39.548;-76.088;2023-02-25T07:15:00;103300.55;;;-1.81;40.99
31331;BME280;34067;39.548;-76.088;2023-02-25T07:17:29;103310.40;;;-2.24;39.39
31331;BME280;34067;39.548;-76.088;2023-02-25T07:19:57;103314.95;;;-1.98;41.51
31331;BME280;34067;39.548;-76.088;2023-02-25T07:22:25;103319.94;;;-2.85;39.46
31331;BME280;34067;39.548;-76.088;2023-02-25T07:24:53;103309.08;;;-1.83;39.28
31331;BME280;34067;39.548;-76.088;2023-02-25T07:27:21;103300.06;;;-1.54;40.99
31331;BME280;34067;39.548;-76.088;2023-02-25T07:29:49;103293.71;;;-1.60;40.24
31331;BME280;34067;39.548;-76.088;2023-02-25T07:32:16;103296.95;;;-2.83;40.01
31331;BME280;34067;39.548;-76.088;2023-02-25T07:34:44;103287.03;;;-2.74;41.19
31331;BME280;34067;39.548;-76.088;2023-02-25T07:37:12;103281.48;;;-2.73;42.40
31331;BME280;34067;39.548;-76.088;2023-02-25T07:39:40;103276.49;;;-2.63;42.11
31331;BME280;34067;39.548;-76.088;2023-02-25T07:42:08;103275.52;;;-2.44;41.08
31331;BME280;34067;39.548;-76.088;2023-02-25T07:44:36;103275.99;;;-2.42;44.17
31331;BME280;34067;39.548;-76.088;2023-02-25T07:47:04;103276.01;;;-1.76;40.95
31331;BME280;34067;39.548;-76.088;2023-02-25T07:49:32;103263.17;;;-2.25;40.34
31331;BME280;34067;39.548;-76.088;2023-02-25T07:52:00;103261.89;;;-1.49;41.26
31331;BME280;34067;39.548;-76.088;2023-02-25T07:54:28;103254.72;;;-1.52;42.07
31331;BME280;34067;39.548;-76.088;2023-02-25T07:56:56;103256.78;;;-1.94;39.56
31331;BME280;34067;39.548;-76.088;2023-02-25T07:59:24;103259.65;;;-0.99;40.11
31331;BME280;34067;39.548;-76.088;2023-02-25T08:01:52;103258.11;;;-1.42;39.65
31331;BME280;34067;39.548;-76.088;2023-02-25T08:04:20;103251.16;;;-1.15;38.74
31331;BME280;34067;39.548;-76.088;2023-02-25T08:06:47;103247.04;;;-1.27;41.45
31331;BME280;34067;39.548;-76.088;2023-02-25T08:09:15;103244.37;;;-0.97;39.53
31331;BME280;34067;39.548;-76.088;2023-02-25T08:11:43;103267.21;;;-1.69;39.76
31331;BME280;34067;39.548;-76.088;2023-02-25T08:14:12;103287.69;;;-0.48;39.07
31331;BME280;34067;39.548;-76.088;2023-02-25T08:16:40;103263.60;;;-1.47;39.42
31331;BME280;34067;39.548;-76.088;2023-02-25T08:19:08;103259.49;;;-1.98;39.09
31331;BME280;34067;39.548;-76.088;2023-02-25T08:21:36;103257.19;;;-1.47;37.94
31331;BME280;34067;39.548;-76.088;2023-02-25T08:24:04;103257.64;;;-1.79;40.75
31331;BME280;34067;39.548;-76.088;2023-02-25T08:26:32;103258.75;;;-1.64;39.19
31331;BME280;34067;39.548;-76.088;2023-02-25T08:29:00;103254.57;;;-1.55;39.02
31331;BME280;34067;39.548;-76.088;2023-02-25T08:31:28;103251.09;;;-0.51;36.78
31331;BME280;34067;39.548;-76.088;2023-02-25T08:33:56;103253.66;;;-1.19;38.53
31331;BME280;34067;39.548;-76.088;2023-02-25T08:36:25;103255.93;;;-0.77;40.07
31331;BME280;34067;39.548;-76.088;2023-02-25T08:38:55;103258.97;;;-0.83;38.85
31331;BME280;34067;39.548;-76.088;2023-02-25T08:41:25;103262.84;;;-0.50;39.27
31331;BME280;34067;39.548;-76.088;2023-02-25T08:43:55;103268.28;;;-0.95;39.21
31331;BME280;34067;39.548;-76.088;2023-02-25T08:46:25;103271.89;;;-0.60;38.66
31331;BME280;34067;39.548;-76.088;2023-02-25T08:48:54;103262.50;;;-0.51;39.11
31331;BME280;34067;39.548;-76.088;2023-02-25T08:51:24;103250.15;;;-0.88;40.39
31331;BME280;34067;39.548;-76.088;2023-02-25T08:53:53;103251.36;;;-0.53;40.11
31331;BME280;34067;39.548;-76.088;2023-02-25T08:56:20;103251.40;;;-1.95;40.24
31331;BME280;34067;39.548;-76.088;2023-02-25T08:58:49;103253.19;;;-0.90;42.29
31331;BME280;34067;39.548;-76.088;2023-02-25T09:01:17;103244.38;;;-1.79;42.54
31331;BME280;34067;39.548;-76.088;2023-02-25T09:03:47;103214.45;;;-2.62;43.16
31331;BME280;34067;39.548;-76.088;2023-02-25T09:06:14;103194.31;;;-1.52;45.67
31331;BME280;34067;39.548;-76.088;2023-02-25T09:08:42;103213.19;;;-2.74;43.64
31331;BME280;34067;39.548;-76.088;2023-02-25T09:11:10;103213.64;;;-1.72;42.90
31331;BME280;34067;39.548;-76.088;2023-02-25T09:13:38;103204.88;;;-1.47;44.34
31331;BME280;34067;39.548;-76.088;2023-02-25T09:16:06;103202.05;;;-2.21;43.27
31331;BME280;34067;39.548;-76.088;2023-02-25T09:18:34;103209.37;;;-1.35;40.90
31331;BME280;34067;39.548;-76.088;2023-02-25T09:21:03;103208.49;;;-1.10;41.96
31331;BME280;34067;39.548;-76.088;2023-02-25T09:23:31;103195.95;;;-0.67;38.73
31331;BME280;34067;39.548;-76.088;2023-02-25T09:26:02;103192.10;;;-1.34;38.67
31331;BME280;34067;39.548;-76.088;2023-02-25T09:28:31;103187.17;;;-0.99;38.62
31331;BME280;34067;39.548;-76.088;2023-02-25T09:30:58;103190.31;;;-0.93;39.41
31331;BME280;34067;39.548;-76.088;2023-02-25T09:33:26;103193.58;;;-1.72;40.74
31331;BME280;34067;39.548;-76.088;2023-02-25T09:35:53;103188.21;;;-1.02;41.82
31331;BME280;34067;39.548;-76.088;2023-02-25T09:38:21;103186.78;;;-0.59;40.47
31331;BME280;34067;39.548;-76.088;2023-02-25T09:40:49;103182.37;;;-1.22;40.33
31331;BME280;34067;39.548;-76.088;2023-02-25T09:43:22;103175.20;;;-2.28;41.65
31331;BME280;34067;39.548;-76.088;2023-02-25T09:45:53;103170.53;;;-2.21;42.69
31331;BME280;34067;39.548;-76.088;2023-02-25T09:48:30;103159.66;;;-1.94;42.32
31331;BME280;34067;39.548;-76.088;2023-02-25T09:51:04;103137.17;;;-2.82;41.33
31331;BME280;34067;39.548;-76.088;2023-02-25T09:53:37;103128.66;;;-2.65;45.97
31331;BME280;34067;39.548;-76.088;2023-02-25T09:56:07;103123.61;;;-2.42;43.45
31331;BME280;34067;39.548;-76.088;2023-02-25T09:58:41;103116.02;;;-2.60;43.79
31331;BME280;34067;39.548;-76.088;2023-02-25T10:01:15;103131.42;;;-1.90;41.48
31331;BME280;34067;39.548;-76.088;2023-02-25T10:03:53;103141.48;;;-2.19;41.13
31331;BME280;34067;39.548;-76.088;2023-02-25T10:06:29;103146.59;;;-2.56;42.11
31331;BME280;34067;39.548;-76.088;2023-02-25T10:09:05;103151.31;;;-2.95;42.33
31331;BME280;34067;39.548;-76.088;2023-02-25T10:11:44;103149.12;;;-2.86;43.17
31331;BME280;34067;39.548;-76.088;2023-02-25T10:14:30;103151.29;;;-2.06;40.89
31331;BME280;34067;39.548;-76.088;2023-02-25T10:17:06;103141.72;;;-2.12;41.94
31331;BME280;34067;39.548;-76.088;2023-02-25T10:19:50;103155.13;;;-2.30;42.75
31331;BME280;34067;39.548;-76.088;2023-02-25T10:22:36;103165.83;;;-2.15;43.81
31331;BME280;34067;39.548;-76.088;2023-02-25T10:25:12;103168.12;;;-2.09;41.76
31331;BME280;34067;39.548;-76.088;2023-02-25T10:27:45;103172.00;;;-1.95;43.17
31331;BME280;34067;39.548;-76.088;2023-02-25T10:30:16;103173.77;;;-1.86;41.52
31331;BME280;34067;39.548;-76.088;2023-02-25T10:32:46;103184.00;;;-1.13;41.46
31331;BME280;34067;39.548;-76.088;2023-02-25T10:35:20;103187.67;;;-1.18;39.72
31331;BME280;34067;39.548;-76.088;2023-02-25T10:37:51;103185.46;;;-1.19;41.54
31331;BME280;34067;39.548;-76.088;2023-02-25T10:40:22;103178.56;;;-1.69;40.31
31331;BME280;34067;39.548;-76.088;2023-02-25T10:42:53;103175.22;;;-1.00;40.57
31331;BME280;34067;39.548;-76.088;2023-02-25T10:45:25;103164.10;;;-2.13;41.59
31331;BME280;34067;39.548;-76.088;2023-02-25T10:48:01;103167.29;;;-2.30;40.50
31331;BME280;34067;39.548;-76.088;2023-02-25T10:50:31;103179.39;;;-1.07;41.29
31331;BME280;34067;39.548;-76.088;2023-02-25T10:53:03;103192.18;;;-0.88;40.44
31331;BME280;34067;39.548;-76.088;2023-02-25T10:55:40;103197.55;;;-1.61;41.37
31331;BME280;34067;39.548;-76.088;2023-02-25T10:58:27;103202.21;;;-1.63;41.70
31331;BME280;34067;39.548;-76.088;2023-02-25T11:01:00;103210.59;;;-3.55;43.43
31331;BME280;34067;39.548;-76.088;2023-02-25T11:03:31;103204.28;;;-2.21;42.24
31331;BME280;34067;39.548;-76.088;2023-02-25T11:06:11;103213.39;;;-1.27;42.19
31331;BME280;34067;39.548;-76.088;2023-02-25T11:08:39;103192.35;;;-2.94;44.92
31331;BME280;34067;39.548;-76.088;2023-02-25T11:11:16;103181.16;;;-3.46;45.69
31331;BME280;34067;39.548;-76.088;2023-02-25T11:13:54;103179.44;;;-3.15;46.26
31331;BME280;34067;39.548;-76.088;2023-02-25T11:16:23;103199.32;;;-2.79;46.76
31331;BME280;34067;39.548;-76.088;2023-02-25T11:18:55;103199.90;;;-3.20;45.17
31331;BME280;34067;39.548;-76.088;2023-02-25T11:21:33;103193.86;;;-3.55;45.56
31331;BME280;34067;39.548;-76.088;2023-02-25T11:24:11;103186.95;;;-3.45;46.15
31331;BME280;34067;39.548;-76.088;2023-02-25T11:26:43;103166.28;;;-3.78;46.79
31331;BME280;34067;39.548;-76.088;2023-02-25T11:29:14;103163.07;;;-4.03;45.22
31331;BME280;34067;39.548;-76.088;2023-02-25T11:31:43;103199.06;;;-3.22;44.04
31331;BME280;34067;39.548;-76.088;2023-02-25T11:34:20;103195.14;;;-2.98;45.22
31331;BME280;34067;39.548;-76.088;2023-02-25T11:36:49;103183.43;;;-2.38;43.97
31331;BME280;34067;39.548;-76.088;2023-02-25T11:39:20;103188.04;;;-2.57;44.21
31331;BME280;34067;39.548;-76.088;2023-02-25T11:41:50;103200.07;;;-2.38;46.78
31331;BME280;34067;39.548;-76.088;2023-02-25T11:44:26;103196.82;;;-2.37;44.35
31331;BME280;34067;39.548;-76.088;2023-02-25T11:46:58;103183.80;;;-2.06;43.39
31331;BME280;34067;39.548;-76.088;2023-02-25T11:49:41;103181.93;;;-2.33;44.76
31331;BME280;34067;39.548;-76.088;2023-02-25T11:52:23;103193.67;;;-2.97;44.57
31331;BME280;34067;39.548;-76.088;2023-02-25T11:55:01;103180.80;;;-2.75;43.92
31331;BME280;34067;39.548;-76.088;2023-02-25T11:57:41;103179.07;;;-2.90;45.16
31331;BME280;34067;39.548;-76.088;2023-02-25T12:00:23;103153.60;;;-3.19;44.46
31331;BME280;34067;39.548;-76.088;2023-02-25T12:03:09;103124.50;;;-2.92;43.57
31331;BME280;34067;39.548;-76.088;2023-02-25T12:05:57;103121.81;;;-3.35;43.61
31331;BME280;34067;39.548;-76.088;2023-02-25T12:11:15;103176.03;;;-2.18;44.57
31331;BME280;34067;39.548;-76.088;2023-02-25T12:14:30;103180.35;;;-2.48;43.81
31331;BME280;34067;39.548;-76.088;2023-02-25T12:21:59;103224.55;;;-1.01;42.63
31331;BME280;34067;39.548;-76.088;2023-02-25T12:24:40;103227.53;;;-1.96;43.91
31331;BME280;34067;39.548;-76.088;2023-02-25T12:27:34;103211.47;;;-1.87;41.34
31331;BME280;34067;39.548;-76.088;2023-02-25T12:30:39;103216.11;;;-1.91;42.89
31331;BME280;34067;39.548;-76.088;2023-02-25T12:33:21;103210.25;;;-2.95;41.35
31331;BME280;34067;39.548;-76.088;2023-02-25T12:36:03;103213.38;;;-2.56;43.93
31331;BME280;34067;39.548;-76.088;2023-02-25T12:39:09;103216.35;;;-1.98;44.91
31331;BME280;34067;39.548;-76.088;2023-02-25T12:41:45;103231.56;;;-1.43;42.18
31331;BME280;34067;39.548;-76.088;2023-02-25T12:44:36;103253.20;;;-1.65;43.87
31331;BME280;34067;39.548;-76.088;2023-02-25T12:47:23;103258.96;;;-2.14;41.74
31331;BME280;34067;39.548;-76.088;2023-02-25T12:50:07;103244.66;;;-2.22;40.25
31331;BME280;34067;39.548;-76.088;2023-02-25T12:52:56;103227.68;;;-1.66;40.79
31331;BME280;34067;39.548;-76.088;2023-02-25T12:55:41;103205.89;;;-1.26;40.08
31331;BME280;34067;39.548;-76.088;2023-02-25T12:58:21;103183.90;;;-1.68;40.93
31331;BME280;34067;39.548;-76.088;2023-02-25T13:01:07;103169.47;;;-1.40;41.84
31331;BME280;34067;39.548;-76.088;2023-02-25T13:03:58;103186.90;;;-2.25;42.06
31331;BME280;34067;39.548;-76.088;2023-02-25T13:06:46;103196.38;;;-1.48;43.32